Latest Weather Observations for Mullion

IDN60801

Issued at 6:23 pm EST Saturday 9 May 2026 (issued every 10 minutes, with the page automatically refreshed every 10 minutes)

About weather observations | Map of weather stations | Latest weather observations for NSW | Other Formats
Station Details ID: 250070 Name: MULLION (PCS) Lat: -35.11 Lon: 148.85 Height: 750.0 m

Portable automatic weather stations (PAWS) are operated by other organisations, such as Fire and Emergency Services, and are included here by agreement. Portable stations may be deployed to a location for a short period and their location may be subject to change without notice. Wind observations from these stations are provided from heights of either three (3) or ten (10) metres above ground level (AGL).

Data from the previous 72 hours. | See also: Recent months for locations in New South Wales
Date/Time
EST
Temp
°C
App
Temp
°C
Dew
Point
°C
Rel
Hum
%
Delta-T
°C
Wind Press
QNH
hPa
Press
MSL
hPa
Rain since
9am
mm
Dir  Spd
km/h
Gust
km/h
Spd
kts
Gust
kts
09/06:10pm 12.2 10.0 12.1 99 0.1 NW 15 15 8 8 1026.5 - 0.0
09/06:00pm 12.3 10.0 11.8 97 0.3 NW 15 17 8 9 1026.5 - 0.0
09/05:50pm 12.3 9.7 12.0 98 0.2 NW 17 19 9 10 1026.4 - 0.0
09/05:40pm 12.4 9.8 12.0 97 0.2 NNW 17 19 9 10 1026.2 - 0.0
09/05:30pm 12.6 9.6 11.9 95 0.4 NNW 19 20 10 11 1026.2 - 0.0
09/05:20pm 12.9 9.9 11.8 93 0.6 NNW 19 20 10 11 1026.1 - 0.0
09/05:10pm 13.2 10.1 11.7 91 0.8 NNW 19 19 10 10 1025.9 - 0.0
09/05:00pm 13.6 10.4 11.2 85 1.3 NNW 19 20 10 11 1025.8 - 0.0
09/04:50pm 14.0 11.5 11.0 82 1.6 NNW 15 19 8 10 1025.7 - 0.0
09/04:40pm 14.3 11.8 11.1 81 1.8 NNW 15 15 8 8 1025.6 - 0.0
09/04:30pm 14.5 12.0 11.0 79 1.9 NNW 15 17 8 9 1025.5 - 0.0
09/04:20pm 14.5 12.0 11.0 79 1.9 NNW 15 17 8 9 1025.5 - 0.0
09/04:10pm 14.5 11.4 10.3 76 2.3 N 17 17 9 9 1025.5 - 0.0
09/04:00pm 14.5 11.8 10.3 76 2.3 NNW 15 19 8 10 1025.5 - 0.0
09/03:50pm 14.6 11.9 10.4 76 2.3 NNW 15 15 8 8 1025.5 - 0.0
09/03:40pm 14.6 11.9 10.4 76 2.3 NNW 15 17 8 9 1025.5 - 0.0
09/03:30pm 14.6 12.0 10.8 78 2.1 NNW 15 17 8 9 1025.4 - 0.0
09/03:20pm 14.5 11.9 10.8 78 2.0 NNW 15 17 8 9 1025.4 - 0.0
09/03:10pm 14.5 12.3 10.9 79 2.0 NNW 13 15 7 8 1025.4 - 0.0
09/03:00pm 14.2 11.7 11.2 82 1.7 NNW 15 17 8 9 1025.4 - 0.0
09/02:50pm 14.3 11.8 11.2 81 1.7 NNW 15 17 8 9 1025.3 - 0.0
09/02:40pm 14.0 11.5 11.1 83 1.6 NNW 15 17 8 9 1025.4 - 0.0
09/02:30pm 14.0 11.5 11.2 83 1.5 NNW 15 15 8 8 1025.3 - 0.0
09/02:20pm 13.5 10.9 10.8 84 1.5 NW 15 17 8 9 1025.4 - 0.0
09/02:10pm 13.4 10.5 10.9 85 1.4 NW 17 19 9 10 1025.3 - 0.0
09/02:00pm 13.4 10.6 11.2 86 1.2 NNW 17 20 9 11 1025.3 - 0.0
09/01:50pm 13.3 10.9 11.4 88 1.0 NNW 15 19 8 10 1025.4 - 0.0
09/01:40pm 13.2 10.6 10.8 85 1.3 NNW 15 17 8 9 1025.5 - 0.0
09/01:30pm 13.1 11.3 10.7 85 1.3 NNW 11 15 6 8 1025.5 - 0.0
09/01:20pm 12.8 10.6 10.9 88 1.0 NNW 13 15 7 8 1025.7 - 0.0
09/01:10pm 12.7 11.1 11.4 92 0.7 NNW 11 15 6 8 1025.8 - 0.0
09/01:00pm 12.7 10.9 10.9 89 1.0 NNW 11 13 6 7 1025.8 - 0.0
09/12:50pm 12.7 10.9 11.0 89 0.9 NNW 11 13 6 7 1025.9 - 0.0
09/12:40pm 12.2 10.2 10.2 87 1.1 NNW 11 13 6 7 1026.0 - 0.0
09/12:30pm 12.1 10.4 11.2 94 0.5 NNW 11 11 6 6 1026.2 - 0.0
09/12:20pm 11.7 10.1 11.7 100 0.0 NNW 11 13 6 7 1026.3 - 0.0
09/12:10pm 11.2 9.5 11.2 100 0.0 NNW 11 13 6 7 1026.5 - 0.0
09/12:00pm 10.9 8.7 10.9 100 0.0 NNW 13 15 7 8 1026.7 - 0.0
09/11:50am 10.9 8.7 10.9 100 0.0 NW 13 15 7 8 1026.8 - 0.0
09/11:40am 11.5 - 11.6 100 - NNW 11 15 6 8 1026.9 - 0.0
09/11:30am 11.7 11.1 11.7 100 0.0 NW 6 9 3 5 1027.1 - 0.0
09/11:20am 12.1 11.3 11.2 94 0.5 NNE 6 7 3 4 1027.1 - 0.0
09/11:10am 11.7 10.9 10.9 95 0.4 NE 6 7 3 4 1027.1 - 0.0
09/11:00am 10.6 9.7 10.6 100 0.0 E 6 9 3 5 1027.2 - 0.0
09/10:50am 9.6 8.2 9.6 100 0.0 ESE 7 9 4 5 1027.2 - 0.0
09/10:40am 9.4 7.6 9.4 100 0.0 ESE 9 11 5 6 1027.2 - 0.0
09/10:30am 9.0 7.1 9.0 100 0.0 ESE 9 11 5 6 1027.2 - 0.0
09/10:20am 8.6 6.6 8.6 100 0.0 ESE 9 13 5 7 1027.3 - 0.0
09/10:10am 8.3 - 8.4 100 - SE 9 11 5 6 1027.2 - 0.0
09/10:00am 8.2 5.7 8.2 100 0.0 ESE 11 11 6 6 1027.2 - 0.0
09/09:50am 8.3 6.6 8.3 100 0.0 ESE 7 9 4 5 1027.2 - 0.0
09/09:40am 8.2 6.5 8.2 100 0.0 E 7 9 4 5 1027.2 - 0.0
09/09:30am 8.3 6.6 8.3 100 0.0 ESE 7 9 4 5 1027.1 - 0.0
09/09:20am 8.2 6.6 8.2 100 0.0 E 6 7 3 4 1027.1 - 0.0
09/09:10am 7.9 6.7 7.9 100 0.0 ESE 4 6 2 3 1027.2 - 0.0
09/09:00am 7.4 5.7 7.4 100 0.0 E 6 7 3 4 1027.1 - 0.0
09/08:50am 7.3 5.3 7.3 100 0.0 E 7 9 4 5 1027.0 - 0.0
09/08:40am 7.1 5.1 7.1 100 0.0 ESE 7 11 4 6 1026.8 - 0.0
09/08:30am 6.9 4.5 6.9 100 0.0 E 9 11 5 6 1026.7 - 0.0
09/08:20am 6.6 4.1 6.6 100 0.0 ESE 9 11 5 6 1026.6 - 0.0
09/08:10am 6.6 3.7 6.6 100 0.0 ESE 11 11 6 6 1026.5 - 0.0
09/08:00am 6.5 3.2 6.5 100 0.0 SE 13 15 7 8 1026.4 - 0.0
09/07:50am 6.3 2.6 6.3 100 0.0 SE 15 15 8 8 1026.4 - 0.0
09/07:40am 6.1 2.4 6.1 100 0.0 SE 15 15 8 8 1026.3 - 0.0
09/07:30am 6.1 2.4 6.1 100 0.0 SE 15 17 8 9 1026.1 - 0.0
09/07:20am 6.1 2.4 6.1 100 0.0 SE 15 17 8 9 1025.9 - 0.0
09/07:10am 6.1 2.7 6.1 100 0.0 SE 13 13 7 7 1025.7 - 0.0
09/07:00am 6.3 3.4 6.3 100 0.0 SSE 11 11 6 6 1025.6 - 0.0
09/06:50am 6.4 3.5 6.4 100 0.0 SSE 11 11 6 6 1025.5 - 0.0
09/06:40am 6.4 3.9 6.4 100 0.0 SSE 9 11 5 6 1025.3 - 0.0
09/06:30am 6.2 3.2 6.2 100 0.0 SE 11 13 6 7 1025.2 - 0.0
09/06:20am 6.3 3.4 6.3 100 0.0 SSE 11 13 6 7 1025.0 - 0.0
09/06:10am 6.4 3.9 6.4 100 0.0 SSE 9 9 5 5 1024.9 - 0.0
09/06:00am 6.3 4.1 6.3 100 0.0 SSE 7 9 4 5 1024.8 - 0.0
09/05:50am 6.5 - - - - S 7 9 4 5 1024.7 - 0.0
09/05:40am 6.4 - - - - SSE 7 7 4 4 1024.6 - 0.0
09/05:30am 6.4 0.6 -24.2 9 7.3 SSE 11 13 6 7 1024.5 - 0.0
09/05:20am 6.4 2.3 -0.3 62 2.7 SSE 11 11 6 6 1024.4 - 0.0
09/05:10am 6.7 3.8 6.7 100 0.0 SSE 11 13 6 7 1024.3 - 0.0
09/05:00am 7.0 3.8 7.0 100 0.0 S 13 13 7 7 1024.1 - 0.0
09/04:50am 7.0 3.2 3.8 80 1.4 SSE 13 15 7 8 1024.1 - 0.0
09/04:40am 7.0 3.8 7.0 100 0.0 SSE 13 15 7 8 1024.2 - 0.0
09/04:30am 8.0 4.7 8.0 100 0.0 S 15 15 8 8 1024.1 - 0.0
09/04:20am 7.6 4.2 7.6 100 0.0 S 15 15 8 8 1024.1 - 0.0
09/04:10am 7.2 3.8 6.1 93 0.5 S 13 13 7 7 1024.1 - 0.0
09/04:00am 6.9 - - - - S 13 13 7 7 1024.0 - 0.0
09/03:50am 6.8 3.5 4.5 85 1.0 S 11 13 6 7 1024.1 - 0.0
09/03:40am 7.3 4.6 7.3 100 0.0 S 11 13 6 7 1024.0 - 0.0
09/03:30am 8.6 7.0 8.6 100 0.0 SSE 7 7 4 4 1024.0 - 0.0
09/03:20am 8.4 6.9 8.4 100 0.0 S 6 7 3 4 1024.0 - 0.0
09/03:10am 7.9 6.1 7.9 100 0.0 W 7 9 4 5 1024.0 - 0.0
09/03:00am 8.4 6.9 8.4 100 0.0 W 6 9 3 5 1024.0 - 0.0
09/02:50am 8.3 6.6 8.3 100 0.0 W 7 7 4 4 1024.1 - 0.0
09/02:40am 8.1 6.5 8.1 100 0.0 W 6 9 3 5 1024.0 - 0.0
09/02:30am 8.3 7.2 8.3 100 0.0 WSW 4 6 2 3 1024.1 - 0.0
09/02:20am 8.2 7.0 8.2 100 0.0 W 4 6 2 3 1024.1 - 0.0
09/02:10am 8.9 7.3 8.9 100 0.0 SW 7 11 4 6 1024.1 - 0.0
09/02:00am 8.3 5.8 8.3 100 0.0 W 11 15 6 8 1024.0 - 0.0
09/01:50am 8.4 6.3 8.4 100 0.0 WNW 9 11 5 6 1023.9 - 0.0
09/01:40am 8.6 6.6 8.6 100 0.0 WNW 9 13 5 7 1023.9 - 0.0
09/01:30am 9.3 7.1 9.3 100 0.0 WSW 11 15 6 8 1024.0 - 0.0
09/01:20am 9.0 6.7 9.0 100 0.0 W 11 15 6 8 1023.8 - 0.0
09/01:10am 10.0 8.3 10.0 100 0.0 WSW 9 13 5 7 1023.9 - 0.0
09/01:00am 10.2 8.1 9.7 97 0.3 SW 11 17 6 9 1023.9 - 0.0
09/12:50am 9.3 6.3 9.3 100 0.0 WSW 15 20 8 11 1024.0 - 0.0
09/12:40am 8.6 6.2 8.6 100 0.0 WNW 11 13 6 7 1023.9 - 0.0
09/12:30am 9.4 6.4 9.4 100 0.0 W 15 20 8 11 1023.9 - 0.0
09/12:20am 9.0 4.6 9.0 100 0.0 W 22 24 12 13 1023.7 - 0.0
09/12:10am 8.9 7.0 8.9 100 0.0 NW 9 17 5 9 1023.8 - 0.0
09/12:00am 10.2 7.8 10.2 100 0.0 S 13 26 7 14 1023.8 - 0.0
 
Date/Time
EST
Temp
°C
App
Temp
°C
Dew
Point
°C
Rel
Hum
%
Delta-T
°C
Wind Press
QNH
hPa
Press
MSL
hPa
Rain since
9am
mm
Dir  Spd
km/h
Gust
km/h
Spd
kts
Gust
kts
08/11:50pm 10.5 4.8 9.8 95 0.4 WSW 30 35 16 19 1023.6 - 0.0
08/11:40pm 9.7 3.4 9.7 100 0.0 WSW 33 35 18 19 1023.4 - 0.0
08/11:30pm 9.6 2.5 9.6 100 0.0 WSW 37 39 20 21 1023.5 - 0.0
08/11:20pm 9.5 2.8 9.5 100 0.0 WSW 35 37 19 20 1023.3 - 0.0
08/11:10pm 9.4 3.2 9.4 100 0.0 W 32 35 17 19 1023.3 - 0.0
08/11:00pm 9.2 2.8 9.2 100 0.0 W 33 35 18 19 1023.6 - 0.0
08/10:50pm 8.8 2.8 8.8 100 0.0 W 30 32 16 17 1023.4 - 0.0
08/10:40pm 9.0 3.1 9.0 100 0.0 W 30 32 16 17 1023.5 - 0.0
08/10:30pm 9.0 3.5 9.0 100 0.0 W 28 30 15 16 1023.7 - 0.0
08/10:20pm 9.2 3.7 9.2 100 0.0 W 28 32 15 17 1023.7 - 0.0
08/10:10pm 9.4 3.2 9.4 100 0.0 W 32 33 17 18 1023.6 - 0.0
08/10:00pm 9.3 3.5 9.3 100 0.0 W 30 32 16 17 1023.8 - 0.0
08/09:50pm 9.3 3.5 9.3 100 0.0 W 30 32 16 17 1023.7 - 0.0
08/09:40pm 9.3 3.5 9.3 100 0.0 W 30 32 16 17 1023.7 - 0.0
08/09:30pm 9.3 3.5 9.3 100 0.0 WNW 30 32 16 17 1023.7 - 0.0
08/09:20pm 9.4 3.6 9.4 100 0.0 WNW 30 30 16 16 1023.7 - 0.0
08/09:10pm 9.2 3.3 9.2 100 0.0 W 30 32 16 17 1023.9 - 0.0
08/09:00pm 9.1 3.6 9.1 100 0.0 WNW 28 30 15 16 1023.8 - 0.0
08/08:50pm 9.1 3.2 9.1 100 0.0 WNW 30 32 16 17 1023.8 - 0.0
08/08:40pm 9.3 3.1 9.3 100 0.0 WNW 32 33 17 18 1023.7 - 0.0
08/08:30pm 9.5 3.1 9.5 100 0.0 W 33 35 18 19 1023.5 - 0.0
08/08:20pm 9.6 3.3 9.6 100 0.0 W 33 37 18 20 1023.4 - 0.0
08/08:10pm 9.5 2.4 9.5 100 0.0 W 37 41 20 22 1023.1 - 0.0
08/08:00pm 9.7 2.3 9.7 100 0.0 W 39 46 21 25 1023.1 - 0.0
08/07:50pm 9.1 2.8 9.1 100 0.0 W 32 37 17 20 1023.2 - 0.0
08/07:40pm 9.5 3.1 9.5 100 0.0 W 33 39 18 21 1023.1 - 0.0
08/07:30pm 9.2 3.0 9.2 100 0.0 W 32 35 17 19 1023.1 - 0.0
08/07:20pm 9.1 1.5 9.1 100 0.0 W 39 43 21 23 1023.0 - 0.0
08/07:10pm 9.2 0.9 9.2 100 0.0 W 43 46 23 25 1022.3 - 0.0
08/07:00pm 9.4 0.9 9.4 100 0.0 W 44 46 24 25 1022.1 - 0.0
08/06:50pm 9.3 0.0 9.3 100 0.0 W 48 54 26 29 1022.4 - 0.0
08/06:40pm 9.1 -0.2 9.1 100 0.0 W 48 52 26 28 1022.0 - 0.0
08/06:30pm 9.0 0.0 9.0 100 0.0 W 46 48 25 26 1021.7 - 0.0
08/06:20pm 9.0 0.4 9.0 100 0.0 W 44 46 24 25 1021.7 - 0.0
08/06:10pm 9.1 0.2 9.1 100 0.0 W 46 52 25 28 1021.4 - 0.0
08/06:00pm 9.0 0.6 9.0 100 0.0 W 43 46 23 25 1021.5 - 0.0
08/05:50pm 8.9 0.3 8.9 100 0.0 W 44 46 24 25 1021.5 - 0.0
08/05:40pm 9.0 0.0 9.0 100 0.0 W 46 50 25 27 1021.4 - 0.0
08/05:30pm 9.1 -0.6 9.1 100 0.0 W 50 54 27 29 1021.1 - 0.0
08/05:20pm 9.1 -0.6 9.1 100 0.0 W 50 54 27 29 1020.8 - 0.0
08/05:10pm 9.0 -0.7 9.0 100 0.0 W 50 54 27 29 1020.2 - 0.0
08/05:00pm 9.0 0.0 9.0 100 0.0 WNW 46 50 25 27 1020.6 - 0.0
08/04:50pm 9.0 0.6 9.0 100 0.0 WNW 43 48 23 26 1020.7 - 0.0
08/04:40pm 9.0 1.4 9.0 100 0.0 WNW 39 43 21 23 1020.8 - 0.0
08/04:30pm 9.0 1.4 9.0 100 0.0 WNW 39 48 21 26 1021.0 - 0.0
08/04:20pm 9.0 - 9.1 100 - WNW 41 48 22 26 1020.7 - 0.0
08/04:10pm 9.0 0.6 9.0 100 0.0 WNW 43 48 23 26 1020.6 - 0.0
08/04:00pm 9.0 0.6 9.0 100 0.0 WNW 43 50 23 27 1020.4 - 0.0
08/03:50pm 9.0 1.4 9.0 100 0.0 WNW 39 46 21 25 1020.4 - 0.0
08/03:40pm 9.0 2.7 9.0 100 0.0 WNW 32 33 17 18 1020.7 - 0.0
08/03:30pm 9.1 2.6 9.1 100 0.0 WNW 33 43 18 23 1020.7 - 0.0
08/03:20pm 9.1 1.5 9.1 100 0.0 WNW 39 43 21 23 1020.5 - 0.0
08/03:10pm 8.9 0.5 8.9 100 0.0 WNW 43 48 23 26 1020.0 - 0.0
08/03:00pm 8.8 1.5 8.8 100 0.0 WNW 37 43 20 23 1020.2 - 0.0
08/02:50pm 8.9 2.6 8.9 100 0.0 WNW 32 37 17 20 1020.5 - 0.0
08/02:40pm 9.1 2.6 9.1 100 0.0 WNW 33 39 18 21 1020.6 - 0.0
08/02:30pm 8.9 2.4 8.9 100 0.0 WNW 33 39 18 21 1020.5 - 0.0
08/02:20pm 8.9 2.4 8.9 100 0.0 WNW 33 41 18 22 1020.4 - 0.0
08/02:10pm 8.9 1.6 8.9 100 0.0 WNW 37 41 20 22 1019.9 - 0.0
08/02:00pm 8.7 1.4 8.7 100 0.0 WNW 37 43 20 23 1019.8 - 0.0
08/01:50pm 8.7 - 8.8 100 - WNW 32 41 17 22 1019.8 - 0.0
08/01:40pm 8.6 2.6 8.6 100 0.0 WNW 30 37 16 20 1020.2 - 0.0
08/01:30pm 8.3 - 8.4 100 - WNW 33 39 18 21 1020.0 - 0.0
08/01:20pm 8.3 1.3 8.3 100 0.0 WNW 35 39 19 21 1020.1 - 0.0
08/01:10pm 8.1 1.6 8.1 100 0.0 WNW 32 39 17 21 1020.1 - 0.0
08/01:00pm 8.2 1.5 8.2 100 0.0 WNW 33 37 18 20 1020.2 - 0.0
08/12:50pm 8.0 1.3 8.0 100 0.0 WNW 33 41 18 22 1020.1 - 0.0
08/12:40pm 8.0 1.1 7.1 94 0.4 WNW 33 37 18 20 1020.5 - 0.0
08/12:30pm 7.8 -2.8 -7.6 32 5.3 WNW 41 46 22 25 1020.1 - 0.0
08/12:20pm 7.6 -3.2 -16.0 17 6.6 WNW 39 44 21 24 1020.0 - 0.0
08/12:10pm 7.2 -3.9 -23.7 9 7.2 NW 39 43 21 23 1020.3 - 0.0
08/12:00pm 7.0 -3.3 -4.4 44 4.2 NW 41 46 22 25 1020.3 - 0.0
08/11:50am 6.9 -3.2 -2.2 52 3.5 NW 41 46 22 25 1020.3 - 0.0
08/11:40am 7.1 -2.2 -5.2 41 4.4 NW 35 39 19 21 1020.8 - 0.0
08/11:30am 7.0 -1.1 5.4 89 0.7 NW 37 43 20 23 1020.8 - 0.0
08/11:20am 6.8 -1.0 6.8 100 0.0 NW 37 41 20 22 1021.0 - 0.0
08/11:10am 6.8 -1.7 6.8 100 0.0 NW 41 46 22 25 1021.0 - 0.0
08/11:00am 6.6 -1.6 6.6 100 0.0 NW 39 41 21 22 1020.9 - 0.0
08/10:50am 6.7 -1.9 6.7 100 0.0 NW 41 46 22 25 1021.0 - 0.0
08/10:40am 6.4 -2.2 6.4 100 0.0 NW 41 43 22 23 1020.8 - 0.0
08/10:30am 6.2 -2.1 6.2 100 0.0 NW 39 44 21 24 1020.8 - 0.0
08/10:20am 6.1 -2.2 6.1 100 0.0 NW 39 43 21 23 1020.9 - 0.0
08/10:10am 5.9 -1.7 5.9 100 0.0 NW 35 39 19 21 1020.9 - 0.0
08/10:00am 5.6 -2.8 5.6 100 0.0 NW 39 44 21 24 1020.8 - 0.0
08/09:50am 5.6 -2.0 5.6 100 0.0 NW 35 41 19 22 1021.0 - 0.0
08/09:40am 5.5 -1.6 5.5 100 0.0 NW 32 33 17 18 1021.3 - 0.0
08/09:30am 5.4 -1.7 5.4 100 0.0 NW 32 33 17 18 1021.4 - 0.0
08/09:20am 5.3 -1.8 5.3 100 0.0 NNW 32 35 17 19 1021.2 - 0.0
08/09:10am 5.3 -1.5 5.3 100 0.0 NNW 30 35 16 19 1021.0 - 0.0
08/09:00am 5.1 -2.1 5.1 100 0.0 NNW 32 37 17 20 1021.1 - 0.0
08/08:50am 5.1 -2.3 5.1 100 0.0 NW 33 41 18 22 1021.1 - 0.0
08/08:40am 5.0 -2.4 5.0 100 0.0 NNW 33 39 18 21 1020.6 - 0.0
08/08:30am 4.9 -1.9 4.9 100 0.0 NNW 30 33 16 18 1020.7 - 0.0
08/08:20am 4.9 -1.2 4.9 100 0.0 N 26 28 14 15 1021.0 - 0.0
08/08:10am 4.8 -1.3 4.8 100 0.0 N 26 30 14 16 1021.0 - 0.0
08/08:00am 4.7 -1.0 4.7 100 0.0 NNW 24 30 13 16 1020.6 - 0.0
08/07:50am 4.7 -1.8 4.7 100 0.0 NNW 28 33 15 18 1020.6 - 0.0
08/07:40am 4.7 -2.2 4.7 100 0.0 NNW 30 37 16 20 1020.5 - 0.0
08/07:30am 4.7 -2.8 4.7 100 0.0 NNW 33 41 18 22 1020.1 - 0.0
08/07:20am 4.7 -2.6 4.7 100 0.0 NNW 32 41 17 22 1019.7 - 0.0
08/07:10am 4.6 -1.5 4.6 100 0.0 NNW 26 32 14 17 1020.1 - 0.0
08/07:00am 4.7 -0.7 4.7 100 0.0 N 22 28 12 15 1020.2 - 0.0
08/06:50am 4.9 -0.4 4.9 100 0.0 N 22 33 12 18 1020.3 - 0.0
08/06:40am 4.7 -0.1 4.7 100 0.0 N 19 28 10 15 1020.3 - 0.0
08/06:30am 4.9 0.9 4.9 100 0.0 N 15 22 8 12 1020.4 - 0.0
08/06:20am 5.0 0.3 5.0 100 0.0 N 19 37 10 20 1020.1 - 0.0
08/06:10am 5.2 1.3 5.2 100 0.0 NW 15 24 8 13 1019.9 - 0.0
08/06:00am 5.3 1.4 5.2 99 0.0 N 15 19 8 10 1020.0 - 0.0
08/05:50am 5.3 2.1 5.1 99 0.1 WSW 11 19 6 10 1020.0 - 0.0
08/05:40am 5.3 1.7 5.1 99 0.1 WNW 13 20 7 11 1020.1 - 0.0
08/05:30am 5.1 -0.2 5.1 100 0.0 NW 22 30 12 16 1019.9 - 0.0
08/05:20am 5.2 -0.5 5.0 99 0.1 WNW 24 32 13 17 1019.7 - 0.0
08/05:10am 5.0 -0.3 5.0 100 0.0 NW 22 37 12 20 1019.8 - 0.0
08/05:00am 5.1 0.4 5.1 100 0.0 WNW 19 28 10 15 1019.8 - 0.0
08/04:50am 4.9 -0.4 4.9 100 0.0 NW 22 28 12 15 1019.6 - 0.0
08/04:40am 4.9 0.0 4.9 100 0.0 NW 20 28 11 15 1020.0 - 0.0
08/04:30am 5.0 0.1 5.0 100 0.0 WNW 20 26 11 14 1020.0 - 0.0
08/04:20am 5.0 0.6 5.0 100 0.0 WNW 17 20 9 11 1019.8 - 0.0
08/04:10am 5.1 -0.6 4.9 99 0.1 WNW 24 30 13 16 1019.8 - 0.0
08/04:00am 5.3 0.9 4.7 96 0.3 NW 17 24 9 13 1019.7 - 0.0
08/03:50am 5.4 0.0 4.5 94 0.4 W 22 39 12 21 1019.7 - 0.0
08/03:40am 5.3 -0.9 4.4 94 0.4 WNW 26 39 14 21 1019.2 - 0.0
08/03:30am 5.1 -1.4 4.6 97 0.2 W 28 35 15 19 1019.6 - 0.0
08/03:20am 5.1 -1.8 4.7 97 0.2 WNW 30 37 16 20 1019.7 - 0.0
08/03:10am 4.9 -1.2 4.7 99 0.1 WNW 26 33 14 18 1019.8 - 0.0
08/03:00am 4.9 -1.6 4.5 97 0.2 WNW 28 37 15 20 1019.6 - 0.0
08/02:50am 4.8 -1.3 4.6 99 0.1 WNW 26 35 14 19 1019.8 - 0.0
08/02:40am 4.8 -1.7 4.5 98 0.1 WNW 28 35 15 19 1019.7 - 0.0
08/02:30am 5.0 -2.0 4.1 94 0.4 WNW 30 37 16 20 1019.9 - 0.0
08/02:20am 5.0 -2.6 4.0 93 0.4 WNW 33 39 18 21 1020.0 - 0.0
08/02:10am 5.0 -2.4 3.8 92 0.5 WNW 32 37 17 20 1020.0 - 0.0
08/02:00am 5.1 -2.4 3.7 91 0.6 WNW 32 39 17 21 1020.0 - 0.0
08/01:50am 5.2 -3.3 3.4 88 0.8 WNW 37 44 20 24 1019.9 - 0.0
08/01:40am 5.2 -3.0 2.9 85 1.0 WNW 35 41 19 22 1020.0 - 0.0
08/01:30am 5.4 -3.6 2.6 82 1.2 W 39 46 21 25 1020.0 - 0.0
08/01:20am 5.5 -5.2 2.3 80 1.4 W 48 63 26 34 1019.9 - 0.0
08/01:10am 5.4 -4.6 2.4 81 1.3 W 44 57 24 31 1020.0 - 0.0
08/01:00am 5.4 -4.9 2.4 81 1.3 W 46 52 25 28 1019.6 - 0.0
08/12:50am 5.2 -5.1 2.5 83 1.2 W 46 52 25 28 1019.5 - 0.0
08/12:40am 5.2 -5.5 2.4 82 1.2 WNW 48 59 26 32 1019.2 - 0.0
08/12:30am 5.4 -4.0 2.2 80 1.4 W 41 48 22 26 1019.6 - 0.0
08/12:20am 5.3 -1.3 2.3 81 1.3 W 26 30 14 16 1020.6 - 0.0
08/12:10am 5.4 -3.6 2.3 80 1.3 W 39 44 21 24 1020.8 - 0.0
08/12:00am 5.2 -3.1 2.2 81 1.3 WNW 35 41 19 22 1020.4 - 0.0
 
Date/Time
EST
Temp
°C
App
Temp
°C
Dew
Point
°C
Rel
Hum
%
Delta-T
°C
Wind Press
QNH
hPa
Press
MSL
hPa
Rain since
9am
mm
Dir  Spd
km/h
Gust
km/h
Spd
kts
Gust
kts
07/11:50pm 5.3 -3.8 2.1 80 1.4 W 39 44 21 24 1020.5 - 0.0
07/11:40pm 5.2 -4.3 2.0 80 1.3 W 41 54 22 29 1020.3 - 0.0
07/11:30pm 5.1 -4.3 2.2 81 1.2 W 41 44 22 24 1020.4 - 0.0
07/11:20pm 5.0 -2.9 2.5 84 1.1 WNW 33 39 18 21 1020.5 - 0.0
07/11:10pm 5.0 -3.3 2.4 83 1.1 W 35 39 19 21 1020.8 - 0.0
07/11:00pm 4.9 -2.4 2.3 83 1.1 WNW 30 37 16 20 1020.8 - 0.0
07/10:50pm 4.8 -2.9 2.2 83 1.1 WNW 32 35 17 19 1020.9 - 0.0
07/10:40pm 4.8 -2.1 2.3 84 1.1 W 28 35 15 19 1021.0 - 0.0
07/10:30pm 4.9 -2.9 1.5 79 1.4 W 32 46 17 25 1021.0 - 0.0
07/10:20pm 4.8 -3.3 1.3 78 1.4 WNW 33 37 18 20 1021.1 - 0.0
07/10:10pm 4.8 -3.6 1.5 79 1.4 WNW 35 43 19 23 1021.3 - 0.0
07/10:00pm 4.7 -3.2 1.1 77 1.5 WNW 32 39 17 21 1021.0 - 0.0
07/09:50pm 4.7 -4.2 0.9 76 1.6 W 37 44 20 24 1021.2 - 0.0
07/09:40pm 4.7 -5.0 0.8 76 1.6 W 41 54 22 29 1020.9 - 0.0
07/09:30pm 4.7 -6.3 0.4 74 1.7 W 48 59 26 32 1020.4 - 0.0
07/09:20pm 4.5 -3.7 0.5 75 1.6 W 33 39 18 21 1021.2 - 0.0
07/09:10pm 4.5 -5.2 0.4 75 1.6 W 41 46 22 25 1020.8 - 0.0
07/09:00pm 4.4 -3.6 0.4 75 1.6 W 32 35 17 19 1021.2 - 0.0
07/08:50pm 4.3 -3.0 0.2 75 1.6 WNW 28 37 15 20 1021.2 - 0.0
07/08:40pm 4.3 -1.5 0.0 73 1.7 WNW 20 26 11 14 1021.2 - 0.0
07/08:30pm 4.3 -2.6 0.0 73 1.7 WNW 26 37 14 20 1021.4 - 0.0
07/08:20pm 4.5 -4.9 -0.2 71 1.9 WNW 39 46 21 25 1020.9 - 0.0
07/08:10pm 4.4 -4.3 -0.3 71 1.9 WNW 35 43 19 23 1020.8 - 0.0
07/08:00pm 4.4 -3.3 -0.1 72 1.8 WNW 30 37 16 20 1020.8 - 0.0
07/07:50pm 4.4 -3.3 0.1 73 1.7 WNW 30 37 16 20 1021.0 - 0.0
07/07:40pm 4.6 -3.7 0.0 72 1.8 WNW 33 39 18 21 1020.9 - 0.0
07/07:30pm 4.6 -3.1 -0.1 71 1.9 WNW 30 35 16 19 1020.7 - 0.0
07/07:20pm 4.7 -2.2 0.0 71 1.9 WNW 26 30 14 16 1020.8 - 0.0
07/07:10pm 4.8 -2.2 -0.2 70 2.0 WNW 26 32 14 17 1020.7 - 0.0
07/07:00pm 4.8 -1.7 0.0 71 1.9 WNW 24 33 13 18 1020.5 - 0.0
07/06:50pm 5.0 -3.6 -0.1 69 2.0 WNW 35 41 19 22 1020.3 - 0.0
07/06:40pm 5.0 -4.0 0.0 70 2.0 WNW 37 43 20 23 1020.2 - 0.0
07/06:30pm 5.1 -4.3 -0.1 69 2.1 WNW 39 46 21 25 1020.0 - 0.0
07/06:20pm 5.2 -4.6 0.0 69 2.1 W 41 46 22 25 1019.8 - 0.0
07/06:10pm 5.3 -6.2 -0.2 67 2.2 W 50 56 27 30 1019.0 - 0.0
07/06:00pm 5.3 -7.4 -0.3 67 2.2 WNW 56 65 30 35 1018.3 - 0.0
07/05:50pm 5.3 -7.0 -0.3 67 2.2 W 54 59 29 32 1018.4 - 0.0
07/05:40pm 5.3 -6.2 -0.2 67 2.2 W 50 59 27 32 1018.6 - 0.0
07/05:30pm 5.5 -7.8 -0.4 66 2.3 W 59 69 32 37 1018.2 - 0.0
07/05:20pm 5.6 -7.7 -0.5 65 2.4 W 59 67 32 36 1017.6 - 0.0
07/05:10pm 5.6 -5.9 -0.4 65 2.4 W 50 61 27 33 1018.1 - 0.0
07/05:00pm 5.7 -6.6 -0.5 64 2.5 W 54 61 29 33 1017.7 - 0.0
07/04:50pm 5.8 -6.5 -0.1 66 2.4 W 54 61 29 33 1018.1 - 0.0
07/04:40pm 5.7 -7.1 -0.2 66 2.4 W 57 61 31 33 1017.7 - 0.0
07/04:30pm 5.8 -6.5 -0.1 66 2.4 W 54 61 29 33 1017.7 - 0.0
07/04:20pm 6.1 -5.8 -0.1 64 2.5 W 52 57 28 31 1017.4 - 0.0
07/04:10pm 6.3 -6.3 -0.1 63 2.6 W 56 65 30 35 1017.4 - 0.0
07/04:00pm 6.4 -5.5 -0.1 63 2.6 W 52 59 28 32 1017.3 - 0.0
07/03:50pm 6.5 -4.6 0.0 63 2.6 WNW 48 54 26 29 1017.1 - 0.0
07/03:40pm 6.9 -1.4 -0.4 59 3.0 WNW 33 43 18 23 1017.7 - 0.0
07/03:30pm 7.0 -2.7 0.5 63 2.7 WNW 41 54 22 29 1018.2 - 0.0
07/03:20pm 7.3 -0.4 0.1 60 3.0 WNW 30 37 16 20 1018.0 - 0.0
07/03:10pm 7.1 -0.9 0.1 61 2.9 WNW 32 41 17 22 1018.0 - 0.0
07/03:00pm 7.0 -2.4 -0.2 60 2.9 WNW 39 46 21 25 1017.6 - 0.0
07/02:50pm 7.2 -2.6 -0.5 58 3.1 WNW 41 46 22 25 1017.7 - 0.0
07/02:40pm 7.3 -2.2 -0.5 57 3.2 W 39 46 21 25 1017.3 - 0.0
07/02:30pm 7.4 -1.7 -0.8 56 3.3 WNW 37 44 20 24 1017.2 - 0.0
07/02:20pm 7.3 -1.5 -1.0 55 3.3 W 35 41 19 22 1017.0 - 0.0
07/02:10pm 7.2 -1.5 -0.5 58 3.1 W 35 46 19 25 1017.1 - 0.0
07/02:00pm 7.2 -2.7 -0.7 57 3.2 W 41 50 22 27 1016.8 - 0.0
07/01:50pm 7.1 -2.4 -1.1 56 3.3 W 39 48 21 26 1017.2 - 0.0
07/01:40pm 7.1 -3.9 -1.8 53 3.5 W 46 57 25 31 1017.1 - 0.0
07/01:30pm 7.1 -3.8 -1.3 55 3.3 W 46 52 25 28 1016.8 - 0.0
07/01:20pm 6.9 -3.1 -1.4 55 3.3 W 41 50 22 27 1016.3 - 0.0
07/01:10pm 6.7 -3.2 -1.0 58 3.1 W 41 46 22 25 1016.8 - 0.0
07/01:00pm 7.2 -1.6 -1.0 56 3.3 W 35 43 19 23 1016.9 - 0.0
07/12:50pm 6.8 -3.1 -1.0 57 3.1 W 41 52 22 28 1016.9 - 0.0
07/12:40pm 6.8 -3.1 -0.8 58 3.0 W 41 44 22 24 1016.8 - 0.0
07/12:30pm 6.4 -6.0 -1.3 58 3.0 W 54 61 29 33 1016.1 - 0.0
07/12:20pm 6.4 -5.7 -1.4 57 3.1 W 52 59 28 32 1015.8 - 0.0
07/12:10pm 6.6 -4.7 -1.5 56 3.2 W 48 57 26 31 1015.8 - 0.0
07/12:00pm 6.2 -5.0 -1.0 60 2.8 W 48 59 26 32 1016.2 - 0.0
07/11:50am 6.0 -4.4 -0.5 63 2.6 W 44 61 24 33 1016.6 - 0.0
07/11:40am 5.8 -4.1 -0.9 62 2.6 W 41 56 22 30 1017.0 - 0.0
07/11:30am 6.0 -2.1 -0.2 64 2.5 W 32 41 17 22 1017.2 - 0.0
07/11:20am 5.8 -2.5 -0.5 64 2.5 W 33 39 18 21 1017.3 - 0.0
07/11:10am 5.5 -4.8 -0.9 63 2.5 W 43 52 23 28 1017.2 - 0.0
07/11:00am 5.5 -4.4 -1.0 63 2.6 W 41 52 22 28 1017.3 - 0.0
07/10:50am 5.3 -3.9 -1.1 63 2.5 W 37 44 20 24 1017.1 - 0.0
07/10:40am 5.5 -1.8 -0.3 66 2.3 W 28 39 15 21 1017.5 - 0.0
07/10:30am 5.2 -4.2 -0.2 68 2.2 W 39 44 21 24 1017.1 - 0.0
07/10:20am 5.2 -4.3 -0.4 67 2.2 W 39 46 21 25 1016.8 - 0.0
07/10:10am 4.9 -5.5 -0.3 69 2.1 WNW 44 52 24 28 1016.3 - 0.0
07/10:00am 5.2 -4.6 0.0 69 2.1 W 41 52 22 28 1016.5 - 0.0
07/09:50am 5.0 -5.2 -0.5 67 2.2 W 43 50 23 27 1016.3 - 0.0
07/09:40am 4.8 -3.5 -0.1 70 2.0 W 33 48 18 26 1016.6 - 0.0
07/09:30am 4.6 -4.5 -0.5 69 2.0 W 37 50 20 27 1016.5 - 0.0
07/09:20am 4.3 -5.1 0.1 74 1.7 W 39 50 21 27 1017.0 - 0.0
07/09:10am 4.5 -3.5 0.5 75 1.6 W 32 37 17 20 1016.9 - 0.0
07/09:00am 4.4 -3.2 0.4 75 1.6 W 30 43 16 23 1016.9 - 0.0
07/08:50am 4.2 -4.3 1.0 80 1.3 W 35 44 19 24 1016.6 - 0.0
07/08:40am 4.2 -3.9 0.9 79 1.3 WNW 33 41 18 22 1016.3 - 0.0
07/08:30am 4.2 -2.9 1.6 83 1.1 WNW 28 35 15 19 1016.5 - 0.0
07/08:20am 4.2 -3.8 1.4 82 1.2 WNW 33 39 18 21 1016.0 - 0.0
07/08:10am 4.2 -5.7 1.4 82 1.2 WNW 43 46 23 25 1015.9 - 0.0
07/08:00am 4.0 -6.6 1.1 81 1.2 WNW 46 52 25 28 1014.8 - 0.0
07/07:50am 4.1 -4.0 1.3 82 1.1 WNW 33 41 18 22 1015.2 - 0.0
07/07:40am 4.2 -3.8 1.9 85 1.0 WNW 33 39 18 21 1015.1 - 0.0
07/07:30am 4.2 -4.9 1.9 85 1.0 WNW 39 44 21 24 1015.0 - 0.0
07/07:20am 4.3 -5.5 2.0 85 1.0 WNW 43 52 23 28 1014.8 - 0.0
07/07:10am 4.4 -6.8 1.9 84 1.0 WNW 50 56 27 30 1014.3 - 0.0
07/07:00am 4.5 -5.8 2.5 87 0.8 WNW 46 52 25 28 1014.0 - 0.0
07/06:50am 4.7 -4.6 2.9 88 0.8 WNW 41 48 22 26 1014.3 - 0.0
07/06:40am 4.9 -7.3 2.7 86 0.9 W 56 61 30 33 1013.7 - 0.0
07/06:30am 5.0 -4.9 2.9 86 0.9 W 44 52 24 28 1013.6 - 0.0
07/06:20am 5.3 -6.8 4.2 93 0.5 W 57 72 31 39 1013.6 - 0.0
07/06:10am 5.9 -6.8 5.2 95 0.3 W 61 67 33 36 1013.1 - 0.0
07/06:00am 7.2 -4.2 6.5 95 0.3 WNW 56 65 30 35 1012.8 - 0.0
07/05:50am 7.7 -3.6 7.0 95 0.3 WNW 56 63 30 34 1012.6 - 0.0
07/05:40am 7.7 -2.4 7.3 97 0.2 WNW 50 59 27 32 1013.2 - 0.0
07/05:30am 7.8 -3.1 7.4 97 0.2 WNW 54 61 29 33 1013.2 - 0.0
07/05:20am 7.8 -4.0 7.5 98 0.1 WNW 59 67 32 36 1012.7 - 0.0
07/05:10am 7.8 -2.6 7.8 100 0.0 WNW 52 57 28 31 1013.4 - 0.0
07/05:00am 7.7 -1.6 7.7 100 0.0 WNW 46 50 25 27 1013.1 - 0.0
07/04:50am 7.7 -1.6 7.7 100 0.0 WNW 46 56 25 30 1013.6 - 0.0
07/04:40am 7.4 -1.6 7.4 100 0.0 WNW 44 50 24 27 1013.8 - 0.0
07/04:30am 7.0 -1.1 7.0 100 0.0 NW 39 44 21 24 1013.8 - 0.0
07/04:20am 6.9 -0.8 6.9 100 0.0 NW 37 43 20 23 1013.9 - 0.0
07/04:00am 7.0 -1.1 7.0 100 0.0 NW 39 44 21 24 1013.9 - 0.0
07/03:50am 7.1 -0.2 7.1 100 0.0 NW 35 41 19 22 1014.2 - 0.0
07/03:40am 7.3 0.0 7.3 100 0.0 NW 35 39 19 21 1014.5 - 0.0
07/03:30am 7.5 1.6 7.5 100 0.0 NW 28 32 15 17 1014.9 - 0.0
07/03:20am 7.8 1.0 7.8 100 0.0 NW 33 39 18 21 1015.0 - 0.0
07/03:10am 8.1 2.6 7.7 97 0.2 NW 26 33 14 18 1015.3 - 0.0
07/03:00am 8.2 1.9 7.4 95 0.4 NW 30 35 16 19 1015.2 - 0.0
07/02:50am 8.2 2.7 7.4 95 0.4 NW 26 30 14 16 1015.5 - 0.0
07/02:40am 8.3 3.0 7.0 91 0.6 NW 24 30 13 16 1015.8 - 0.0
07/02:30am 8.2 2.9 6.7 90 0.7 NW 24 28 13 15 1016.0 - 0.0
07/02:20am 8.2 2.5 6.7 90 0.7 NW 26 28 14 15 1016.0 - 0.0
07/02:10am 8.2 2.9 6.7 90 0.7 NW 24 28 13 15 1016.0 - 0.0
07/02:00am 8.3 2.6 6.6 89 0.8 NNW 26 32 14 17 1016.1 - 0.0
07/01:50am 8.3 3.3 6.4 88 0.9 NNW 22 26 12 14 1016.3 - 0.0
07/01:40am 8.3 3.8 6.2 87 1.0 NNW 19 28 10 15 1016.6 - 0.0
07/01:30am 8.2 3.5 6.2 87 1.0 NW 20 24 11 13 1016.8 - 0.0
07/01:20am 8.1 3.6 6.2 88 0.9 NW 19 22 10 12 1016.9 - 0.0
07/01:00am 8.2 2.7 6.1 87 1.0 NW 24 30 13 16 1017.1 - 0.0
07/12:50am 7.9 2.4 6.0 88 0.9 WNW 24 32 13 17 1017.1 - 0.0
07/12:40am 7.9 1.3 6.2 89 0.8 WNW 30 33 16 18 1016.9 - 0.0
07/12:30am 7.8 1.2 6.0 88 0.9 WNW 30 32 16 17 1017.1 - 0.0
07/12:20am 7.8 1.2 6.1 89 0.8 WNW 30 33 16 18 1017.0 - 0.0
07/12:10am 7.8 0.8 5.9 88 0.9 WNW 32 43 17 23 1017.1 - 0.0
07/12:00am 8.1 0.1 5.8 85 1.1 WNW 37 44 20 24 1017.2 - 0.0
 
Date/Time
EST
Temp
°C
App
Temp
°C
Dew
Point
°C
Rel
Hum
%
Delta-T
°C
Wind Press
QNH
hPa
Press
MSL
hPa
Rain since
9am
mm
Dir  Spd
km/h
Gust
km/h
Spd
kts
Gust
kts
06/11:50pm 8.1 0.5 5.7 85 1.1 WNW 35 44 19 24 1017.2 - 0.0
06/11:40pm 8.0 0.4 5.9 86 1.0 WNW 35 44 19 24 1017.5 - 0.0
06/11:30pm 7.9 1.3 5.9 87 0.9 WNW 30 33 16 18 1017.4 - 0.0
06/11:20pm 7.8 1.6 6.0 88 0.9 WNW 28 35 15 19 1017.4 - 0.0
06/11:10pm 7.8 0.7 5.7 86 1.0 WNW 32 33 17 18 1017.5 - 0.0
06/11:00pm 7.7 1.2 6.4 91 0.6 WNW 30 32 16 17 1017.6 - 0.0
06/10:50pm 7.9 0.8 6.2 89 0.8 WNW 33 39 18 21 1017.5 - 0.0
06/10:40pm 8.0 0.5 6.4 90 0.8 WNW 35 39 19 21 1017.6 - 0.0
06/10:30pm 8.0 0.1 6.2 88 0.9 WNW 37 43 20 23 1017.5 - 0.0
06/10:20pm 8.1 -0.1 6.7 91 0.7 WNW 39 41 21 22 1017.7 - 0.0
06/10:10pm 8.4 -0.5 6.9 90 0.7 WNW 43 46 23 25 1017.7 - 0.0
06/10:00pm 8.6 0.6 7.3 91 0.6 WNW 39 41 21 22 1017.8 - 0.0
06/09:50pm 8.7 1.1 7.4 91 0.6 WNW 37 48 20 26 1017.6 - 0.0
06/09:40pm 8.8 2.0 7.8 93 0.5 WNW 33 35 18 19 1018.1 - 0.0
06/09:30pm 9.0 2.4 7.7 91 0.6 WNW 32 37 17 20 1018.2 - 0.0
06/09:20pm 9.2 3.8 8.0 92 0.6 WNW 26 33 14 18 1018.3 - 0.0
06/09:10pm 9.1 5.1 8.1 93 0.5 WNW 19 22 10 12 1018.5 - 0.0
06/09:00pm 9.3 4.7 8.1 92 0.6 WNW 22 24 12 13 1018.6 - 0.0
06/08:50pm 9.4 4.9 8.4 93 0.5 WNW 22 24 12 13 1018.6 - 0.0
06/08:40pm 9.4 4.9 8.5 94 0.5 WNW 22 28 12 15 1018.6 - 0.0
06/08:30pm 9.1 6.0 8.8 98 0.2 NW 15 19 8 10 1018.6 - 0.0
06/08:20pm 9.1 6.0 8.9 99 0.1 NW 15 20 8 11 1018.7 - 0.0
06/08:10pm 9.2 5.7 8.7 97 0.3 NW 17 22 9 12 1018.7 - 0.0
06/08:00pm 9.3 5.2 8.8 97 0.3 NW 20 26 11 14 1018.8 - 0.0
06/07:50pm 9.2 5.2 8.9 98 0.2 NW 20 24 11 13 1018.8 - 0.0
06/07:40pm 9.3 4.9 9.1 99 0.1 NW 22 26 12 14 1018.6 - 0.0
06/07:30pm 9.3 4.9 9.1 99 0.1 NW 22 24 12 13 1018.7 - 0.0
06/07:20pm 9.2 4.8 9.1 99 0.1 NW 22 24 12 13 1018.7 - 0.0
06/07:10pm 9.5 4.8 9.3 99 0.1 NW 24 24 13 13 1018.8 - 0.0
06/07:00pm 9.7 4.6 9.1 96 0.3 WNW 26 28 14 15 1018.7 - 0.0
06/06:50pm 9.7 3.9 9.5 99 0.1 WNW 30 32 16 17 1018.6 - 0.0
06/06:40pm 9.8 3.6 9.3 97 0.3 WNW 32 33 17 18 1018.4 - 0.0
06/06:30pm 9.9 3.7 9.3 96 0.3 WNW 32 35 17 19 1018.5 - 0.0

Other formats

Comma delimited format used in spreadsheet applications
http://www.bom.gov.au/fwo/IDN60801/IDN60801.99763.axf

JavaScript Object Notation format (JSON) in row-major order
http://www.bom.gov.au/fwo/IDN60801/IDN60801.99763.json

Data quality

Most of these data are generated automatically and are frequently updated. Quality checks on data are not normally performed. It is possible for incorrect values to appear. Refer to information at About Latest Weather Observations and please check the disclaimer before using these data.